sensor_id;sensor_type;location;lat;lon;timestamp;pressure;altitude;pressure_sealevel;temperature;humidity
5905;BME280;2978;42.012;24.880;2023-02-26T00:00:45;97665.59;;;18.08;37.79
5905;BME280;2978;42.012;24.880;2023-02-26T00:03:22;97655.06;;;18.01;38.16
5905;BME280;2978;42.012;24.880;2023-02-26T00:05:47;97662.38;;;17.93;38.12
5905;BME280;2978;42.012;24.880;2023-02-26T00:08:13;97665.16;;;17.93;38.27
5905;BME280;2978;42.012;24.880;2023-02-26T00:10:38;97665.06;;;17.90;38.36
5905;BME280;2978;42.012;24.880;2023-02-26T00:13:04;97671.88;;;17.92;38.52
5905;BME280;2978;42.012;24.880;2023-02-26T00:15:30;97675.13;;;17.94;38.49
5905;BME280;2978;42.012;24.880;2023-02-26T00:18:07;97675.81;;;17.91;38.43
5905;BME280;2978;42.012;24.880;2023-02-26T00:20:35;97676.19;;;17.90;38.45
5905;BME280;2978;42.012;24.880;2023-02-26T00:23:01;97677.19;;;17.85;38.53
5905;BME280;2978;42.012;24.880;2023-02-26T00:25:27;97685.78;;;17.80;38.51
5905;BME280;2978;42.012;24.880;2023-02-26T00:27:52;97692.97;;;17.81;38.83
5905;BME280;2978;42.012;24.880;2023-02-26T00:30:18;97684.75;;;17.73;38.83
5905;BME280;2978;42.012;24.880;2023-02-26T00:32:44;97689.63;;;17.76;38.46
5905;BME280;2978;42.012;24.880;2023-02-26T00:35:12;97694.59;;;17.82;38.61
5905;BME280;2978;42.012;24.880;2023-02-26T00:43:02;97695.28;;;17.79;38.60
5905;BME280;2978;42.012;24.880;2023-02-26T00:45:28;97702.00;;;17.78;38.94
5905;BME280;2978;42.012;24.880;2023-02-26T00:50:48;97696.19;;;17.71;39.00
5905;BME280;2978;42.012;24.880;2023-02-26T00:53:28;97705.25;;;17.80;39.29
5905;BME280;2978;42.012;24.880;2023-02-26T00:55:55;97698.78;;;17.76;39.26
5905;BME280;2978;42.012;24.880;2023-02-26T00:58:21;97707.91;;;17.65;39.67
5905;BME280;2978;42.012;24.880;2023-02-26T01:00:46;97705.72;;;17.58;40.24
5905;BME280;2978;42.012;24.880;2023-02-26T01:03:12;97709.84;;;17.52;40.20
5905;BME280;2978;42.012;24.880;2023-02-26T01:05:37;97717.28;;;17.48;40.59
5905;BME280;2978;42.012;24.880;2023-02-26T01:08:19;97713.53;;;17.44;40.54
5905;BME280;2978;42.012;24.880;2023-02-26T01:10:48;97710.16;;;17.39;40.76
5905;BME280;2978;42.012;24.880;2023-02-26T01:13:14;97713.28;;;17.37;40.77
5905;BME280;2978;42.012;24.880;2023-02-26T01:15:44;97713.28;;;17.37;40.97
5905;BME280;2978;42.012;24.880;2023-02-26T01:18:20;97721.16;;;17.35;40.82
5905;BME280;2978;42.012;24.880;2023-02-26T01:20:56;97726.59;;;17.32;41.00
5905;BME280;2978;42.012;24.880;2023-02-26T01:23:31;97722.97;;;17.31;40.96
5905;BME280;2978;42.012;24.880;2023-02-26T01:26:02;97717.78;;;17.30;41.12
5905;BME280;2978;42.012;24.880;2023-02-26T01:28:31;97720.78;;;17.25;41.26
5905;BME280;2978;42.012;24.880;2023-02-26T01:30:58;97718.56;;;17.18;41.53
5905;BME280;2978;42.012;24.880;2023-02-26T01:33:49;97716.50;;;17.15;41.80
5905;BME280;2978;42.012;24.880;2023-02-26T01:36:22;97723.53;;;17.13;41.76
5905;BME280;2978;42.012;24.880;2023-02-26T01:38:58;97727.13;;;17.13;41.78
5905;BME280;2978;42.012;24.880;2023-02-26T01:44:04;97720.03;;;17.04;41.69
5905;BME280;2978;42.012;24.880;2023-02-26T01:46:44;97708.00;;;17.00;42.30
5905;BME280;2978;42.012;24.880;2023-02-26T01:49:17;97723.38;;;16.97;42.22
5905;BME280;2978;42.012;24.880;2023-02-26T01:51:52;97714.09;;;16.93;42.46
5905;BME280;2978;42.012;24.880;2023-02-26T01:54:43;97714.78;;;16.90;42.92
5905;BME280;2978;42.012;24.880;2023-02-26T01:57:11;97712.22;;;16.85;42.74
5905;BME280;2978;42.012;24.880;2023-02-26T01:59:42;97722.38;;;16.81;43.26
5905;BME280;2978;42.012;24.880;2023-02-26T02:02:09;97721.84;;;16.67;43.36
5905;BME280;2978;42.012;24.880;2023-02-26T02:04:37;97722.59;;;16.55;44.02
5905;BME280;2978;42.012;24.880;2023-02-26T02:07:05;97723.56;;;16.59;43.72
5905;BME280;2978;42.012;24.880;2023-02-26T02:09:30;97717.66;;;16.61;43.44
5905;BME280;2978;42.012;24.880;2023-02-26T02:17:13;97720.84;;;16.51;43.76
5905;BME280;2978;42.012;24.880;2023-02-26T02:30:32;97724.66;;;16.17;46.23
5905;BME280;2978;42.012;24.880;2023-02-26T02:33:01;97717.31;;;16.13;46.46
5905;BME280;2978;42.012;24.880;2023-02-26T02:35:33;97723.69;;;16.13;46.67
5905;BME280;2978;42.012;24.880;2023-02-26T02:38:07;97716.53;;;16.12;46.10
5905;BME280;2978;42.012;24.880;2023-02-26T02:40:38;97724.53;;;16.14;45.62
5905;BME280;2978;42.012;24.880;2023-02-26T02:43:16;97714.38;;;16.18;46.78
5905;BME280;2978;42.012;24.880;2023-02-26T02:45:52;97725.00;;;16.16;46.94
5905;BME280;2978;42.012;24.880;2023-02-26T02:48:23;97709.50;;;16.15;47.96
5905;BME280;2978;42.012;24.880;2023-02-26T02:50:56;97721.13;;;16.08;48.32
5905;BME280;2978;42.012;24.880;2023-02-26T02:53:32;97715.84;;;15.95;48.69
5905;BME280;2978;42.012;24.880;2023-02-26T02:56:04;97720.91;;;15.93;48.79
5905;BME280;2978;42.012;24.880;2023-02-26T02:58:37;97703.97;;;15.86;48.98
5905;BME280;2978;42.012;24.880;2023-02-26T03:01:06;97702.38;;;15.85;48.78
5905;BME280;2978;42.012;24.880;2023-02-26T03:03:42;97713.69;;;16.00;46.43
5905;BME280;2978;42.012;24.880;2023-02-26T03:06:09;97709.00;;;16.13;46.23
5905;BME280;2978;42.012;24.880;2023-02-26T03:08:37;97713.16;;;16.27;45.74
5905;BME280;2978;42.012;24.880;2023-02-26T03:11:07;97722.22;;;16.36;46.35
5905;BME280;2978;42.012;24.880;2023-02-26T03:13:32;97708.16;;;16.41;45.62
5905;BME280;2978;42.012;24.880;2023-02-26T03:27:11;97713.53;;;16.46;45.35
5905;BME280;2978;42.012;24.880;2023-02-26T03:29:46;97702.75;;;16.45;44.97
5905;BME280;2978;42.012;24.880;2023-02-26T03:32:35;97711.13;;;16.36;48.03
5905;BME280;2978;42.012;24.880;2023-02-26T03:37:39;97704.34;;;16.05;50.28
5905;BME280;2978;42.012;24.880;2023-02-26T03:40:13;97695.75;;;15.98;51.10
5905;BME280;2978;42.012;24.880;2023-02-26T03:42:49;97690.06;;;15.94;51.40
5905;BME280;2978;42.012;24.880;2023-02-26T03:45:26;97669.25;;;15.88;51.47
5905;BME280;2978;42.012;24.880;2023-02-26T03:47:54;97678.22;;;16.06;51.73
5905;BME280;2978;42.012;24.880;2023-02-26T03:50:48;97686.50;;;16.14;52.23
5905;BME280;2978;42.012;24.880;2023-02-26T03:53:22;97676.13;;;16.03;52.81
5905;BME280;2978;42.012;24.880;2023-02-26T03:58:33;97661.34;;;15.99;51.28
5905;BME280;2978;42.012;24.880;2023-02-26T04:01:03;97652.69;;;16.00;51.03
5905;BME280;2978;42.012;24.880;2023-02-26T04:03:42;97663.78;;;16.00;50.07
5905;BME280;2978;42.012;24.880;2023-02-26T04:06:09;97669.91;;;16.06;49.80
5905;BME280;2978;42.012;24.880;2023-02-26T04:08:35;97663.50;;;16.14;49.95
5905;BME280;2978;42.012;24.880;2023-02-26T04:13:30;97674.94;;;16.12;52.31
5905;BME280;2978;42.012;24.880;2023-02-26T04:15:55;97649.84;;;16.09;52.05
5905;BME280;2978;42.012;24.880;2023-02-26T04:18:21;97656.19;;;16.09;52.36
5905;BME280;2978;42.012;24.880;2023-02-26T04:20:46;97652.81;;;16.04;53.54
5905;BME280;2978;42.012;24.880;2023-02-26T04:23:12;97646.66;;;15.77;54.39
5905;BME280;2978;42.012;24.880;2023-02-26T04:25:37;97652.19;;;15.77;53.65
5905;BME280;2978;42.012;24.880;2023-02-26T04:28:03;97655.47;;;15.71;53.95
5905;BME280;2978;42.012;24.880;2023-02-26T04:30:28;97644.06;;;15.72;54.33
5905;BME280;2978;42.012;24.880;2023-02-26T04:32:53;97648.38;;;15.61;54.30
5905;BME280;2978;42.012;24.880;2023-02-26T04:35:19;97633.25;;;15.50;54.80
5905;BME280;2978;42.012;24.880;2023-02-26T04:37:45;97626.97;;;15.41;54.80
5905;BME280;2978;42.012;24.880;2023-02-26T04:40:11;97635.56;;;15.48;54.44
5905;BME280;2978;42.012;24.880;2023-02-26T04:42:36;97632.94;;;15.52;54.68
5905;BME280;2978;42.012;24.880;2023-02-26T04:45:02;97625.72;;;15.59;53.86
5905;BME280;2978;42.012;24.880;2023-02-26T04:47:28;97632.03;;;15.68;53.89
5905;BME280;2978;42.012;24.880;2023-02-26T04:49:53;97628.44;;;15.68;53.08
5905;BME280;2978;42.012;24.880;2023-02-26T04:52:19;97642.50;;;15.63;50.54
5905;BME280;2978;42.012;24.880;2023-02-26T04:54:44;97636.03;;;15.50;51.47
5905;BME280;2978;42.012;24.880;2023-02-26T04:57:09;97634.75;;;15.48;51.31
5905;BME280;2978;42.012;24.880;2023-02-26T04:59:35;97642.59;;;15.46;50.89
5905;BME280;2978;42.012;24.880;2023-02-26T05:02:02;97630.88;;;15.40;51.03
5905;BME280;2978;42.012;24.880;2023-02-26T05:04:28;97642.28;;;15.39;51.33
5905;BME280;2978;42.012;24.880;2023-02-26T05:06:53;97631.72;;;15.32;50.66
5905;BME280;2978;42.012;24.880;2023-02-26T05:09:20;97615.91;;;15.33;50.71
5905;BME280;2978;42.012;24.880;2023-02-26T05:11:45;97628.13;;;15.40;50.58
5905;BME280;2978;42.012;24.880;2023-02-26T05:14:12;97625.66;;;15.39;49.98
5905;BME280;2978;42.012;24.880;2023-02-26T05:16:37;97631.03;;;15.35;50.08
5905;BME280;2978;42.012;24.880;2023-02-26T05:19:02;97648.19;;;15.29;50.20
5905;BME280;2978;42.012;24.880;2023-02-26T05:21:28;97654.41;;;15.17;50.45
5905;BME280;2978;42.012;24.880;2023-02-26T05:23:53;97637.34;;;15.07;51.01
5905;BME280;2978;42.012;24.880;2023-02-26T05:26:19;97643.84;;;15.11;51.41
5905;BME280;2978;42.012;24.880;2023-02-26T05:28:44;97638.31;;;15.11;51.68
5905;BME280;2978;42.012;24.880;2023-02-26T05:31:11;97632.97;;;15.06;51.47
5905;BME280;2978;42.012;24.880;2023-02-26T05:33:37;97628.41;;;15.10;51.03
5905;BME280;2978;42.012;24.880;2023-02-26T05:36:02;97632.44;;;15.12;50.88
5905;BME280;2978;42.012;24.880;2023-02-26T05:38:28;97634.66;;;15.27;49.57
5905;BME280;2978;42.012;24.880;2023-02-26T05:40:56;97635.63;;;15.31;49.56
5905;BME280;2978;42.012;24.880;2023-02-26T05:43:22;97663.78;;;15.42;48.03
5905;BME280;2978;42.012;24.880;2023-02-26T05:45:49;97667.22;;;15.68;45.08
5905;BME280;2978;42.012;24.880;2023-02-26T05:48:14;97651.19;;;16.03;45.43
5905;BME280;2978;42.012;24.880;2023-02-26T05:50:40;97659.56;;;16.15;45.79
5905;BME280;2978;42.012;24.880;2023-02-26T05:53:05;97658.78;;;16.14;46.83
5905;BME280;2978;42.012;24.880;2023-02-26T05:55:31;97658.66;;;16.11;45.44
5905;BME280;2978;42.012;24.880;2023-02-26T05:57:56;97677.31;;;16.22;45.31
5905;BME280;2978;42.012;24.880;2023-02-26T06:00:22;97702.88;;;16.28;45.21
5905;BME280;2978;42.012;24.880;2023-02-26T06:02:47;97703.09;;;16.23;44.74
5905;BME280;2978;42.012;24.880;2023-02-26T06:05:13;97705.72;;;16.40;44.33
5905;BME280;2978;42.012;24.880;2023-02-26T06:07:38;97713.72;;;16.62;43.85
5905;BME280;2978;42.012;24.880;2023-02-26T06:10:05;97724.22;;;16.77;43.06
5905;BME280;2978;42.012;24.880;2023-02-26T06:12:31;97729.94;;;16.93;42.40
5905;BME280;2978;42.012;24.880;2023-02-26T06:14:56;97734.50;;;17.09;42.40
5905;BME280;2978;42.012;24.880;2023-02-26T06:17:21;97726.94;;;17.30;42.62
5905;BME280;2978;42.012;24.880;2023-02-26T06:19:47;97724.22;;;17.54;42.36
5905;BME280;2978;42.012;24.880;2023-02-26T06:22:12;97732.47;;;17.63;42.02
5905;BME280;2978;42.012;24.880;2023-02-26T06:24:38;97732.03;;;17.73;41.87
5905;BME280;2978;42.012;24.880;2023-02-26T06:27:03;97725.28;;;17.74;41.74
5905;BME280;2978;42.012;24.880;2023-02-26T06:29:28;97734.94;;;17.88;41.23
5905;BME280;2978;42.012;24.880;2023-02-26T06:31:54;97724.94;;;17.99;41.32
5905;BME280;2978;42.012;24.880;2023-02-26T06:34:19;97721.59;;;18.06;41.28
5905;BME280;2978;42.012;24.880;2023-02-26T06:36:46;97720.53;;;18.11;41.14
5905;BME280;2978;42.012;24.880;2023-02-26T06:39:11;97711.16;;;18.03;41.65
5905;BME280;2978;42.012;24.880;2023-02-26T06:41:37;97718.00;;;18.06;41.65
5905;BME280;2978;42.012;24.880;2023-02-26T06:44:03;97723.31;;;17.98;41.88
5905;BME280;2978;42.012;24.880;2023-02-26T06:46:28;97735.38;;;18.03;41.86
5905;BME280;2978;42.012;24.880;2023-02-26T06:48:54;97713.47;;;17.89;41.80
5905;BME280;2978;42.012;24.880;2023-02-26T06:51:19;97724.03;;;17.95;41.74
5905;BME280;2978;42.012;24.880;2023-02-26T06:53:45;97712.91;;;17.95;41.34
5905;BME280;2978;42.012;24.880;2023-02-26T06:56:10;97728.19;;;18.02;41.73
5905;BME280;2978;42.012;24.880;2023-02-26T06:58:35;97724.16;;;17.99;41.46
5905;BME280;2978;42.012;24.880;2023-02-26T07:01:03;97726.69;;;18.04;41.08
5905;BME280;2978;42.012;24.880;2023-02-26T07:03:28;97715.31;;;18.09;40.94
5905;BME280;2978;42.012;24.880;2023-02-26T07:05:54;97719.59;;;18.19;40.71
5905;BME280;2978;42.012;24.880;2023-02-26T07:08:20;97737.91;;;18.32;40.47
5905;BME280;2978;42.012;24.880;2023-02-26T07:10:45;97717.03;;;18.26;40.33
5905;BME280;2978;42.012;24.880;2023-02-26T07:13:14;97716.34;;;18.29;40.13
5905;BME280;2978;42.012;24.880;2023-02-26T07:15:39;97712.16;;;18.35;39.48
5905;BME280;2978;42.012;24.880;2023-02-26T07:18:05;97722.78;;;18.57;39.25
5905;BME280;2978;42.012;24.880;2023-02-26T07:20:31;97726.25;;;18.66;38.90
5905;BME280;2978;42.012;24.880;2023-02-26T07:22:56;97747.34;;;18.79;38.95
5905;BME280;2978;42.012;24.880;2023-02-26T07:25:22;97740.44;;;18.88;38.65
5905;BME280;2978;42.012;24.880;2023-02-26T07:27:48;97750.38;;;19.01;38.59
5905;BME280;2978;42.012;24.880;2023-02-26T07:30:14;97752.31;;;19.13;38.84
5905;BME280;2978;42.012;24.880;2023-02-26T07:32:40;97757.63;;;19.18;38.93
5905;BME280;2978;42.012;24.880;2023-02-26T07:35:06;97756.94;;;19.09;39.05
5905;BME280;2978;42.012;24.880;2023-02-26T07:37:31;97741.25;;;18.89;39.93
5905;BME280;2978;42.012;24.880;2023-02-26T07:39:57;97739.97;;;18.98;39.86
5905;BME280;2978;42.012;24.880;2023-02-26T07:42:22;97728.25;;;18.93;40.06
5905;BME280;2978;42.012;24.880;2023-02-26T07:44:47;97744.50;;;18.91;40.27
5905;BME280;2978;42.012;24.880;2023-02-26T07:47:13;97740.94;;;19.06;40.25
5905;BME280;2978;42.012;24.880;2023-02-26T07:49:39;97748.31;;;19.26;40.01
5905;BME280;2978;42.012;24.880;2023-02-26T07:52:05;97745.31;;;19.47;39.75
5905;BME280;2978;42.012;24.880;2023-02-26T07:54:33;97746.50;;;19.61;39.24
5905;BME280;2978;42.012;24.880;2023-02-26T07:56:59;97743.00;;;19.80;39.60
5905;BME280;2978;42.012;24.880;2023-02-26T07:59:24;97764.03;;;19.93;38.96
5905;BME280;2978;42.012;24.880;2023-02-26T08:01:50;97748.28;;;20.00;38.75
5905;BME280;2978;42.012;24.880;2023-02-26T08:04:15;97737.97;;;20.17;38.58
5905;BME280;2978;42.012;24.880;2023-02-26T08:06:41;97728.28;;;20.30;38.19
5905;BME280;2978;42.012;24.880;2023-02-26T08:09:06;97733.72;;;20.23;38.73
5905;BME280;2978;42.012;24.880;2023-02-26T08:11:32;97726.31;;;20.14;38.30
5905;BME280;2978;42.012;24.880;2023-02-26T08:14:01;97717.84;;;20.27;38.33
5905;BME280;2978;42.012;24.880;2023-02-26T08:16:26;97711.16;;;20.31;38.45
5905;BME280;2978;42.012;24.880;2023-02-26T08:18:52;97716.66;;;20.28;38.57
5905;BME280;2978;42.012;24.880;2023-02-26T08:21:17;97720.69;;;20.46;38.21
5905;BME280;2978;42.012;24.880;2023-02-26T08:23:42;97719.81;;;20.61;37.83
5905;BME280;2978;42.012;24.880;2023-02-26T08:26:09;97729.69;;;20.55;38.08
5905;BME280;2978;42.012;24.880;2023-02-26T08:28:35;97732.03;;;20.53;38.01
5905;BME280;2978;42.012;24.880;2023-02-26T08:31:01;97716.78;;;20.66;37.98
5905;BME280;2978;42.012;24.880;2023-02-26T08:33:27;97742.22;;;20.80;37.39
5905;BME280;2978;42.012;24.880;2023-02-26T08:35:53;97731.31;;;20.75;37.41
5905;BME280;2978;42.012;24.880;2023-02-26T08:38:20;97731.97;;;20.68;37.42
5905;BME280;2978;42.012;24.880;2023-02-26T08:40:48;97719.81;;;20.61;37.68
5905;BME280;2978;42.012;24.880;2023-02-26T08:43:13;97699.41;;;20.57;37.40
5905;BME280;2978;42.012;24.880;2023-02-26T08:45:39;97720.72;;;20.65;37.49
5905;BME280;2978;42.012;24.880;2023-02-26T08:48:04;97721.16;;;20.67;37.58
5905;BME280;2978;42.012;24.880;2023-02-26T08:50:30;97710.88;;;20.71;37.76
5905;BME280;2978;42.012;24.880;2023-02-26T08:52:56;97719.22;;;20.33;37.79
5905;BME280;2978;42.012;24.880;2023-02-26T08:55:22;97715.06;;;20.27;37.85
5905;BME280;2978;42.012;24.880;2023-02-26T08:57:47;97707.38;;;20.39;37.55
5905;BME280;2978;42.012;24.880;2023-02-26T09:00:13;97715.75;;;20.39;37.71
5905;BME280;2978;42.012;24.880;2023-02-26T09:02:43;97713.97;;;20.66;37.18
5905;BME280;2978;42.012;24.880;2023-02-26T09:05:08;97730.81;;;20.88;36.71
5905;BME280;2978;42.012;24.880;2023-02-26T09:07:34;97726.88;;;21.08;36.20
5905;BME280;2978;42.012;24.880;2023-02-26T09:10:00;97717.34;;;20.75;36.44
5905;BME280;2978;42.012;24.880;2023-02-26T09:12:25;97716.31;;;20.83;37.04
5905;BME280;2978;42.012;24.880;2023-02-26T09:14:51;97720.88;;;20.91;36.94
5905;BME280;2978;42.012;24.880;2023-02-26T09:17:16;97720.28;;;20.82;36.68
5905;BME280;2978;42.012;24.880;2023-02-26T09:19:42;97715.88;;;20.81;36.80
5905;BME280;2978;42.012;24.880;2023-02-26T09:22:07;97707.81;;;20.76;37.17
5905;BME280;2978;42.012;24.880;2023-02-26T09:24:33;97714.78;;;20.85;36.75
5905;BME280;2978;42.012;24.880;2023-02-26T09:26:59;97721.69;;;20.91;36.10
5905;BME280;2978;42.012;24.880;2023-02-26T09:29:25;97733.66;;;21.07;36.34
5905;BME280;2978;42.012;24.880;2023-02-26T09:31:50;97716.19;;;20.95;36.46
5905;BME280;2978;42.012;24.880;2023-02-26T09:34:16;97728.56;;;21.13;36.44
5905;BME280;2978;42.012;24.880;2023-02-26T09:36:41;97705.75;;;21.30;35.97
5905;BME280;2978;42.012;24.880;2023-02-26T09:39:08;97699.41;;;21.56;35.11
5905;BME280;2978;42.012;24.880;2023-02-26T09:41:38;97712.91;;;21.95;34.98
5905;BME280;2978;42.012;24.880;2023-02-26T09:47:08;97710.69;;;22.30;34.04
5905;BME280;2978;42.012;24.880;2023-02-26T09:50:17;97718.97;;;22.23;34.32
5905;BME280;2978;42.012;24.880;2023-02-26T09:52:42;97723.00;;;22.00;34.40
5905;BME280;2978;42.012;24.880;2023-02-26T09:55:15;97728.16;;;21.75;34.59
5905;BME280;2978;42.012;24.880;2023-02-26T09:57:44;97686.69;;;21.58;35.08
5905;BME280;2978;42.012;24.880;2023-02-26T10:03:14;97719.88;;;21.60;35.23
5905;BME280;2978;42.012;24.880;2023-02-26T10:11:30;97725.22;;;21.68;35.22
5905;BME280;2978;42.012;24.880;2023-02-26T10:14:06;97720.91;;;21.74;35.00
5905;BME280;2978;42.012;24.880;2023-02-26T10:16:38;97706.09;;;21.93;34.65
5905;BME280;2978;42.012;24.880;2023-02-26T10:19:13;97714.97;;;21.76;35.13
5905;BME280;2978;42.012;24.880;2023-02-26T10:21:51;97696.44;;;21.90;34.75
5905;BME280;2978;42.012;24.880;2023-02-26T10:24:25;97699.53;;;21.63;34.68
5905;BME280;2978;42.012;24.880;2023-02-26T10:27:01;97704.72;;;21.83;35.24
5905;BME280;2978;42.012;24.880;2023-02-26T10:34:57;97716.69;;;21.61;34.86
5905;BME280;2978;42.012;24.880;2023-02-26T10:51:35;97690.88;;;21.71;34.98
5905;BME280;2978;42.012;24.880;2023-02-26T10:57:22;97675.16;;;22.08;34.71
5905;BME280;2978;42.012;24.880;2023-02-26T10:59:48;97663.38;;;22.52;33.39
5905;BME280;2978;42.012;24.880;2023-02-26T11:02:39;97682.66;;;22.86;33.14
5905;BME280;2978;42.012;24.880;2023-02-26T11:05:12;97672.91;;;22.73;32.48
5905;BME280;2978;42.012;24.880;2023-02-26T11:07:38;97678.03;;;22.42;33.26
5905;BME280;2978;42.012;24.880;2023-02-26T11:10:13;97676.00;;;22.12;33.67
5905;BME280;2978;42.012;24.880;2023-02-26T11:12:39;97659.00;;;21.98;33.80
5905;BME280;2978;42.012;24.880;2023-02-26T11:15:05;97639.91;;;22.07;34.09
5905;BME280;2978;42.012;24.880;2023-02-26T11:17:30;97677.34;;;21.96;34.40
5905;BME280;2978;42.012;24.880;2023-02-26T11:20:01;97659.94;;;21.83;34.41
5905;BME280;2978;42.012;24.880;2023-02-26T11:22:33;97663.72;;;21.94;34.13
5905;BME280;2978;42.012;24.880;2023-02-26T11:25:01;97658.56;;;21.74;34.22
5905;BME280;2978;42.012;24.880;2023-02-26T11:27:33;97647.97;;;21.86;34.13
5905;BME280;2978;42.012;24.880;2023-02-26T11:30:09;97651.72;;;22.20;33.97
5905;BME280;2978;42.012;24.880;2023-02-26T11:32:38;97649.78;;;22.24;33.46
5905;BME280;2978;42.012;24.880;2023-02-26T11:35:08;97641.09;;;22.32;33.62
5905;BME280;2978;42.012;24.880;2023-02-26T11:37:38;97626.66;;;22.30;32.89
5905;BME280;2978;42.012;24.880;2023-02-26T11:40:29;97638.16;;;22.52;32.79
5905;BME280;2978;42.012;24.880;2023-02-26T11:42:59;97632.25;;;22.30;33.33
5905;BME280;2978;42.012;24.880;2023-02-26T11:45:28;97640.28;;;22.32;33.00
5905;BME280;2978;42.012;24.880;2023-02-26T11:48:02;97647.84;;;22.28;32.85
5905;BME280;2978;42.012;24.880;2023-02-26T11:50:30;97642.22;;;21.98;32.80
5905;BME280;2978;42.012;24.880;2023-02-26T11:53:06;97637.00;;;22.26;33.00
5905;BME280;2978;42.012;24.880;2023-02-26T11:55:43;97614.44;;;22.16;32.17
5905;BME280;2978;42.012;24.880;2023-02-26T11:58:37;97622.28;;;22.03;32.51
5905;BME280;2978;42.012;24.880;2023-02-26T12:01:03;97623.31;;;22.21;32.85
5905;BME280;2978;42.012;24.880;2023-02-26T12:03:34;97642.94;;;22.51;32.20
5905;BME280;2978;42.012;24.880;2023-02-26T12:06:00;97647.53;;;22.63;31.78
5905;BME280;2978;42.012;24.880;2023-02-26T12:08:32;97631.22;;;22.72;31.90
5905;BME280;2978;42.012;24.880;2023-02-26T12:11:23;97627.56;;;22.38;32.01
5905;BME280;2978;42.012;24.880;2023-02-26T12:33:44;97622.84;;;22.46;31.64
5905;BME280;2978;42.012;24.880;2023-02-26T12:36:32;97647.00;;;22.54;31.42
5905;BME280;2978;42.012;24.880;2023-02-26T12:39:16;97649.78;;;22.54;31.83
5905;BME280;2978;42.012;24.880;2023-02-26T12:56:10;97671.25;;;22.16;32.98
5905;BME280;2978;42.012;24.880;2023-02-26T13:12:39;97662.84;;;21.90;34.15
5905;BME280;2978;42.012;24.880;2023-02-26T13:17:56;97651.66;;;21.45;34.79
5905;BME280;2978;42.012;24.880;2023-02-26T13:20:26;97661.41;;;21.09;35.21
5905;BME280;2978;42.012;24.880;2023-02-26T13:22:59;97667.34;;;20.89;36.14
5905;BME280;2978;42.012;24.880;2023-02-26T13:25:32;97674.13;;;21.07;35.82
5905;BME280;2978;42.012;24.880;2023-02-26T13:28:02;97679.00;;;21.33;35.66
5905;BME280;2978;42.012;24.880;2023-02-26T13:30:33;97677.41;;;21.54;35.36
5905;BME280;2978;42.012;24.880;2023-02-26T13:33:00;97685.63;;;21.66;35.17
5905;BME280;2978;42.012;24.880;2023-02-26T13:35:36;97685.34;;;21.75;35.32
5905;BME280;2978;42.012;24.880;2023-02-26T13:38:19;97698.34;;;21.64;34.83
5905;BME280;2978;42.012;24.880;2023-02-26T13:41:12;97705.75;;;21.75;34.38
5905;BME280;2978;42.012;24.880;2023-02-26T13:51:52;97703.38;;;21.32;35.55
5905;BME280;2978;42.012;24.880;2023-02-26T14:02:52;97704.94;;;20.72;36.02
5905;BME280;2978;42.012;24.880;2023-02-26T14:05:32;97698.97;;;20.74;35.63
5905;BME280;2978;42.012;24.880;2023-02-26T14:10:34;97700.41;;;20.68;36.21
5905;BME280;2978;42.012;24.880;2023-02-26T14:13:34;97708.97;;;20.75;35.86
5905;BME280;2978;42.012;24.880;2023-02-26T14:16:12;97714.13;;;20.38;36.31
5905;BME280;2978;42.012;24.880;2023-02-26T14:21:37;97722.88;;;20.37;36.62
5905;BME280;2978;42.012;24.880;2023-02-26T14:26:35;97732.91;;;20.57;36.42
5905;BME280;2978;42.012;24.880;2023-02-26T14:32:03;97728.72;;;20.66;36.14
5905;BME280;2978;42.012;24.880;2023-02-26T14:34:33;97729.31;;;20.56;36.08
5905;BME280;2978;42.012;24.880;2023-02-26T14:37:03;97741.75;;;20.59;36.35
5905;BME280;2978;42.012;24.880;2023-02-26T14:39:53;97744.09;;;20.57;36.23
5905;BME280;2978;42.012;24.880;2023-02-26T14:42:24;97745.28;;;20.40;36.49
5905;BME280;2978;42.012;24.880;2023-02-26T14:45:07;97745.25;;;20.21;36.48
5905;BME280;2978;42.012;24.880;2023-02-26T14:47:35;97756.84;;;20.07;37.14
5905;BME280;2978;42.012;24.880;2023-02-26T14:50:02;97739.66;;;20.05;37.19
5905;BME280;2978;42.012;24.880;2023-02-26T14:52:50;97757.59;;;19.89;37.23
5905;BME280;2978;42.012;24.880;2023-02-26T15:04:13;97748.22;;;19.81;37.78
5905;BME280;2978;42.012;24.880;2023-02-26T15:09:32;97734.91;;;19.59;38.54
5905;BME280;2978;42.012;24.880;2023-02-26T15:17:28;97746.44;;;19.30;38.92
5905;BME280;2978;42.012;24.880;2023-02-26T15:20:07;97748.28;;;19.38;38.91
5905;BME280;2978;42.012;24.880;2023-02-26T15:23:04;97768.66;;;19.42;38.90
5905;BME280;2978;42.012;24.880;2023-02-26T15:25:36;97770.56;;;19.38;39.40
5905;BME280;2978;42.012;24.880;2023-02-26T15:28:04;97767.31;;;19.36;39.26
5905;BME280;2978;42.012;24.880;2023-02-26T15:30:31;97776.34;;;19.45;39.26
5905;BME280;2978;42.012;24.880;2023-02-26T15:33:01;97781.19;;;19.48;39.00
5905;BME280;2978;42.012;24.880;2023-02-26T15:35:28;97778.78;;;19.47;39.11
5905;BME280;2978;42.012;24.880;2023-02-26T15:37:58;97786.69;;;19.60;39.25
5905;BME280;2978;42.012;24.880;2023-02-26T15:40:28;97776.66;;;19.71;38.80
5905;BME280;2978;42.012;24.880;2023-02-26T15:42:56;97767.00;;;19.69;38.94
5905;BME280;2978;42.012;24.880;2023-02-26T15:45:30;97784.53;;;19.54;39.20
5905;BME280;2978;42.012;24.880;2023-02-26T15:48:00;97781.91;;;19.45;39.37
5905;BME280;2978;42.012;24.880;2023-02-26T15:50:31;97771.44;;;19.42;39.48
5905;BME280;2978;42.012;24.880;2023-02-26T15:53:00;97783.81;;;19.29;39.74
5905;BME280;2978;42.012;24.880;2023-02-26T15:55:35;97784.06;;;19.24;40.06
5905;BME280;2978;42.012;24.880;2023-02-26T15:58:02;97806.38;;;19.24;40.23
5905;BME280;2978;42.012;24.880;2023-02-26T16:00:31;97795.47;;;19.19;40.15
5905;BME280;2978;42.012;24.880;2023-02-26T16:02:57;97819.38;;;19.20;40.29
5905;BME280;2978;42.012;24.880;2023-02-26T16:05:25;97824.66;;;19.09;40.56
5905;BME280;2978;42.012;24.880;2023-02-26T16:07:50;97838.22;;;19.11;40.61
5905;BME280;2978;42.012;24.880;2023-02-26T16:10:32;97829.31;;;19.05;40.47
5905;BME280;2978;42.012;24.880;2023-02-26T16:13:00;97846.13;;;19.09;40.68
5905;BME280;2978;42.012;24.880;2023-02-26T16:15:32;97825.69;;;19.17;40.70
5905;BME280;2978;42.012;24.880;2023-02-26T16:18:01;97832.50;;;19.20;40.74